Time;durP1;ratioP1;P1;durP2;ratioP2;P2;SDS_P1;SDS_P2;PMS_P1;PMS_P2;Temp;Humidity;BMP_temperature;BMP_pressure;BME280_temperature;BME280_humidity;BME280_pressure;Samples;Min_cycle;Max_cycle;Signal;HPM_P1;HPM_P2
2021/07/05 00:02:25;;;;;;;3.80;1.45;;;18.60;99.90;;;;;;5076034;28;20314;-73
2021/07/05 00:04:52;;;;;;;1.20;1.20;;;18.70;99.90;;;;;;5076218;28;20203;-73
2021/07/05 00:07:20;;;;;;;1.30;1.20;;;18.70;99.90;;;;;;5076158;28;20313;-74
2021/07/05 00:09:47;;;;;;;1.33;1.25;;;18.70;99.90;;;;;;5076197;28;20203;-73
2021/07/05 00:12:14;;;;;;;2.17;1.42;;;18.70;99.90;;;;;;5076142;28;20290;-73
2021/07/05 00:14:42;;;;;;;1.50;1.40;;;18.60;99.90;;;;;;5076062;28;20297;-73
2021/07/05 00:17:09;;;;;;;1.50;1.40;;;18.60;99.90;;;;;;5075802;28;20218;-73
2021/07/05 00:19:36;;;;;;;1.05;1.00;;;18.50;99.90;;;;;;5075695;28;20297;-73
2021/07/05 00:22:03;;;;;;;3.15;1.60;;;18.50;99.90;;;;;;5075496;28;20238;-74
2021/07/05 00:24:30;;;;;;;2.13;1.60;;;18.50;99.90;;;;;;5075583;28;20234;-73
2021/07/05 00:26:57;;;;;;;1.40;1.30;;;18.50;99.90;;;;;;5075513;28;20226;-73
2021/07/05 00:29:24;;;;;;;1.20;1.20;;;18.50;99.90;;;;;;5075826;28;20207;-73
2021/07/05 00:31:52;;;;;;;1.65;1.55;;;18.50;99.90;;;;;;5075267;28;20210;-73
2021/07/05 00:34:19;;;;;;;2.03;1.40;;;18.60;99.90;;;;;;5075651;28;20205;-73
2021/07/05 00:36:46;;;;;;;1.50;1.40;;;18.60;99.90;;;;;;5076022;28;20584;-73
2021/07/05 00:39:13;;;;;;;1.55;1.45;;;18.70;99.90;;;;;;5076939;28;20293;-73
2021/07/05 00:41:39;;;;;;;1.50;1.40;;;18.70;99.90;;;;;;5077901;28;20309;-73
2021/07/05 00:44:06;;;;;;;1.63;1.45;;;18.70;99.90;;;;;;5077722;28;20317;-73
2021/07/05 00:46:33;;;;;;;1.45;1.35;;;18.60;99.90;;;;;;5077544;28;20289;-73
2021/07/05 00:49:01;;;;;;;1.50;1.40;;;18.50;99.90;;;;;;5077652;28;20209;-73
2021/07/05 00:51:28;;;;;;;1.45;1.35;;;18.40;99.90;;;;;;5075872;28;20205;-73
2021/07/05 00:53:56;;;;;;;2.30;1.50;;;18.30;99.90;;;;;;5077320;28;20665;-73
2021/07/05 00:56:23;;;;;;;1.55;1.45;;;18.40;99.90;;;;;;5076608;28;20289;-73
2021/07/05 00:58:50;;;;;;;1.65;1.55;;;18.50;99.90;;;;;;5077790;28;20293;-73
2021/07/05 01:01:17;;;;;;;1.20;1.20;;;18.60;99.90;;;;;;5077318;28;20311;-73
2021/07/05 01:03:44;;;;;;;1.38;1.27;;;18.60;99.90;;;;;;5077701;28;20226;-73
2021/07/05 01:06:13;;;;;;;1.37;1.20;;;18.70;99.90;;;;;;5077024;28;20615;-73
2021/07/05 01:08:40;;;;;;;1.20;1.10;;;18.70;99.90;;;;;;5077774;28;20477;-73
2021/07/05 01:11:08;;;;;;;1.27;1.27;;;18.70;99.90;;;;;;5076655;28;20270;-73
2021/07/05 01:13:35;;;;;;;1.70;1.60;;;18.60;99.90;;;;;;5076035;28;20528;-73
2021/07/05 01:16:02;;;;;;;1.70;1.52;;;18.50;99.90;;;;;;5076295;28;20203;-73
2021/07/05 01:18:29;;;;;;;1.60;1.50;;;18.40;99.90;;;;;;5075873;28;20317;-73
2021/07/05 01:20:59;;;;;;;2.30;1.40;;;18.40;99.90;;;;;;5074715;28;20252;-73
2021/07/05 01:23:26;;;;;;;2.00;1.40;;;18.30;99.90;;;;;;5074951;28;20219;-73
2021/07/05 01:25:53;;;;;;;3.28;1.40;;;18.30;99.90;;;;;;5074736;28;20202;-72
2021/07/05 01:28:20;;;;;;;4.00;1.35;;;18.30;99.90;;;;;;5074440;28;20233;-72
2021/07/05 01:30:47;;;;;;;1.50;1.40;;;18.30;99.90;;;;;;5075203;28;20198;-73
2021/07/05 01:33:15;;;;;;;3.38;1.35;;;18.40;99.90;;;;;;5076299;28;20195;-73
2021/07/05 01:35:42;;;;;;;1.50;1.40;;;18.50;99.90;;;;;;5076192;28;20225;-73
2021/07/05 01:38:12;;;;;;;1.40;1.30;;;18.50;99.90;;;;;;5075544;28;20222;-73
2021/07/05 01:40:40;;;;;;;1.70;1.60;;;18.50;99.90;;;;;;5074004;28;20215;-73
2021/07/05 01:43:07;;;;;;;1.40;1.30;;;18.50;99.90;;;;;;5074794;28;20590;-73
2021/07/05 01:45:34;;;;;;;1.70;1.60;;;18.50;99.90;;;;;;5074061;28;20437;-73
2021/07/05 01:48:02;;;;;;;1.40;1.30;;;18.60;99.90;;;;;;5074178;28;20223;-73
2021/07/05 01:50:30;;;;;;;1.75;1.50;;;18.60;99.90;;;;;;5073906;28;20577;-73
2021/07/05 01:52:57;;;;;;;1.63;1.52;;;18.50;99.90;;;;;;5074087;28;20209;-73
2021/07/05 01:55:29;;;;;;;2.75;1.20;;;18.60;99.90;;;;;;5074138;28;20234;-73
2021/07/05 01:57:56;;;;;;;4.50;1.40;;;18.60;99.90;;;;;;5074296;28;20258;-73
2021/07/05 02:00:23;;;;;;;1.35;1.20;;;18.50;99.90;;;;;;5073824;28;20198;-73
2021/07/05 02:02:52;;;;;;;1.42;1.30;;;18.40;99.90;;;;;;5073991;28;20297;-73
2021/07/05 02:05:19;;;;;;;1.30;1.30;;;18.30;99.90;;;;;;5073890;28;20651;-73
2021/07/05 02:07:47;;;;;;;1.67;1.40;;;18.30;99.90;;;;;;5073406;28;20223;-73
2021/07/05 02:10:17;;;;;;;1.40;1.30;;;18.30;99.90;;;;;;5073677;28;20259;-72
2021/07/05 02:12:45;;;;;;;1.83;1.40;;;18.30;99.90;;;;;;5073712;28;20580;-73
2021/07/05 02:15:14;;;;;;;1.20;1.20;;;18.40;99.90;;;;;;5073672;28;20297;-72
2021/07/05 02:17:42;;;;;;;1.33;1.25;;;18.30;99.90;;;;;;5073666;28;20222;-73
2021/07/05 02:20:11;;;;;;;1.50;1.40;;;18.40;99.90;;;;;;5073561;28;20199;-73
2021/07/05 02:22:38;;;;;;;1.27;1.20;;;18.40;99.90;;;;;;5073696;28;20289;-73
2021/07/05 02:25:07;;;;;;;1.75;1.40;;;18.30;99.90;;;;;;5073675;28;20318;-73
2021/07/05 02:27:34;;;;;;;1.70;1.60;;;18.20;99.90;;;;;;5073410;28;20223;-73
2021/07/05 02:30:04;;;;;;;1.75;1.65;;;18.20;99.90;;;;;;5073237;28;20669;-73
2021/07/05 02:32:31;;;;;;;1.92;1.38;;;18.20;99.90;;;;;;5073520;28;20293;-73
2021/07/05 02:34:58;;;;;;;1.48;1.38;;;18.30;99.90;;;;;;5073993;28;20207;-73
2021/07/05 02:37:25;;;;;;;1.85;1.52;;;18.30;99.90;;;;;;5073226;28;20223;-73
2021/07/05 02:39:52;;;;;;;3.20;1.60;;;18.30;99.90;;;;;;5073801;28;20205;-73
2021/07/05 02:42:19;;;;;;;2.83;1.30;;;18.10;99.90;;;;;;5073479;28;20301;-73
2021/07/05 02:44:46;;;;;;;1.55;1.45;;;18.20;99.90;;;;;;5073494;28;20760;-73
2021/07/05 02:47:14;;;;;;;1.50;1.40;;;18.10;99.90;;;;;;5073538;28;20223;-73
2021/07/05 02:49:41;;;;;;;1.70;1.60;;;18.10;99.90;;;;;;5073690;28;20198;-73
2021/07/05 02:52:07;;;;;;;1.45;1.35;;;18.10;99.90;;;;;;5074866;28;20203;-73
2021/07/05 02:54:34;;;;;;;3.05;1.55;;;18.20;99.90;;;;;;5075090;28;20205;-73
2021/07/05 02:57:01;;;;;;;1.38;1.27;;;18.20;99.90;;;;;;5074465;28;20254;-73
2021/07/05 02:59:28;;;;;;;1.60;1.50;;;18.20;99.90;;;;;;5073811;28;20289;-73
2021/07/05 03:01:55;;;;;;;1.38;1.30;;;18.10;99.90;;;;;;5074038;28;20270;-73
2021/07/05 03:04:23;;;;;;;1.88;1.58;;;18.20;99.90;;;;;;5075019;28;20708;-73
2021/07/05 03:06:50;;;;;;;1.40;1.30;;;18.20;99.90;;;;;;5074340;28;20237;-73
2021/07/05 03:09:17;;;;;;;1.90;1.70;;;18.10;99.90;;;;;;5073650;28;20229;-73
2021/07/05 03:11:43;;;;;;;1.98;1.15;;;18.10;99.90;;;;;;5074091;28;20293;-73
2021/07/05 03:14:10;;;;;;;1.58;1.48;;;18.10;99.90;;;;;;5073930;28;20661;-72
2021/07/05 03:16:37;;;;;;;1.48;1.38;;;18.00;99.90;;;;;;5073380;28;20322;-73
2021/07/05 03:19:04;;;;;;;1.80;1.70;;;18.00;99.90;;;;;;5074352;28;20200;-73
2021/07/05 03:21:32;;;;;;;1.98;1.73;;;18.00;99.90;;;;;;5077053;28;20203;-73
2021/07/05 03:23:59;;;;;;;3.10;1.48;;;18.00;99.90;;;;;;5076899;28;20692;-73
2021/07/05 03:26:26;;;;;;;2.08;1.42;;;18.10;99.90;;;;;;5077032;28;20199;-73
2021/07/05 03:28:52;;;;;;;3.65;1.65;;;18.00;99.90;;;;;;5077064;28;20724;-73
2021/07/05 03:31:19;;;;;;;4.13;1.67;;;17.90;99.90;;;;;;5076825;28;20289;-73
2021/07/05 03:33:48;;;;;;;1.60;1.50;;;17.90;99.90;;;;;;5076895;28;20201;-73
2021/07/05 03:36:14;;;;;;;1.60;1.50;;;17.90;99.90;;;;;;5076705;28;20203;-73
2021/07/05 03:38:43;;;;;;;1.48;1.42;;;17.90;99.90;;;;;;5076791;28;20277;-73
2021/07/05 03:41:10;;;;;;;1.35;1.25;;;17.90;99.90;;;;;;5076271;28;20317;-73
2021/07/05 03:43:38;;;;;;;1.30;1.20;;;18.00;99.90;;;;;;5076448;28;20258;-73
2021/07/05 03:46:05;;;;;;;2.15;1.70;;;18.10;99.90;;;;;;5076458;28;20285;-73
2021/07/05 03:48:32;;;;;;;1.73;1.63;;;18.20;99.90;;;;;;5076504;28;20223;-73
2021/07/05 03:50:59;;;;;;;1.80;1.60;;;18.20;99.90;;;;;;5076154;28;20202;-73
2021/07/05 03:53:26;;;;;;;2.35;1.60;;;18.10;99.90;;;;;;5076382;28;20290;-73
2021/07/05 03:55:54;;;;;;;2.05;1.75;;;18.10;99.90;;;;;;5076297;28;20198;-73
2021/07/05 03:58:21;;;;;;;2.08;1.60;;;18.10;99.90;;;;;;5076306;28;20222;-73
2021/07/05 04:00:47;;;;;;;1.63;1.52;;;18.10;99.90;;;;;;5076171;28;20249;-73
2021/07/05 04:03:15;;;;;;;1.75;1.65;;;18.10;99.90;;;;;;5076520;28;20222;-73
2021/07/05 04:05:42;;;;;;;1.75;1.52;;;18.00;99.90;;;;;;5076073;28;20222;-73
2021/07/05 04:08:09;;;;;;;2.30;2.10;;;18.10;99.90;;;;;;5075968;28;20261;-73
2021/07/05 04:10:38;;;;;;;2.08;1.88;;;18.10;99.90;;;;;;5076473;28;20595;-73
2021/07/05 04:13:07;;;;;;;2.55;1.70;;;18.10;99.90;;;;;;5075732;28;20665;-73
2021/07/05 04:15:35;;;;;;;2.15;2.05;;;18.10;99.90;;;;;;5075844;28;20573;-73
2021/07/05 04:18:01;;;;;;;1.85;1.75;;;18.00;99.90;;;;;;5075964;28;20310;-73
2021/07/05 04:20:28;;;;;;;1.70;1.30;;;18.00;99.90;;;;;;5075656;28;20249;-73
2021/07/05 04:22:55;;;;;;;1.95;1.80;;;18.10;99.90;;;;;;5075774;28;20290;-73
2021/07/05 04:25:23;;;;;;;1.60;1.50;;;18.20;99.90;;;;;;5075746;28;20310;-73
2021/07/05 04:27:51;;;;;;;2.03;1.60;;;18.30;99.90;;;;;;5075756;28;20588;-73
2021/07/05 04:30:20;;;;;;;1.60;1.50;;;18.30;99.90;;;;;;5075306;28;20447;-73
2021/07/05 04:32:47;;;;;;;1.70;1.60;;;18.40;99.90;;;;;;5076112;28;20286;-73
2021/07/05 04:35:16;;;;;;;1.75;1.65;;;18.50;99.90;;;;;;5075655;28;20227;-73
2021/07/05 04:37:45;;;;;;;1.70;1.60;;;18.50;99.90;;;;;;5075327;28;20320;-73
2021/07/05 04:40:14;;;;;;;2.85;1.98;;;18.50;99.90;;;;;;5077504;28;20599;-72
2021/07/05 04:42:42;;;;;;;3.47;2.33;;;18.50;99.90;;;;;;5076624;28;20211;-73
2021/07/05 04:45:10;;;;;;;2.53;2.05;;;18.40;99.90;;;;;;5076524;28;20313;-72
2021/07/05 04:47:39;;;;;;;1.70;1.58;;;18.40;99.90;;;;;;5076247;28;20309;-73
2021/07/05 04:50:09;;;;;;;1.60;1.50;;;18.40;99.90;;;;;;5075902;28;20290;-73
2021/07/05 04:52:36;;;;;;;2.53;2.15;;;18.40;99.90;;;;;;5076021;28;20207;-73
2021/07/05 04:55:04;;;;;;;1.73;1.30;;;18.30;99.90;;;;;;5076101;28;20194;-72
2021/07/05 04:57:31;;;;;;;1.60;1.50;;;18.30;99.90;;;;;;5075829;28;20229;-73
2021/07/05 04:59:58;;;;;;;1.83;1.73;;;18.30;99.90;;;;;;5075449;28;20632;-73
2021/07/05 05:02:25;;;;;;;2.60;2.15;;;18.30;99.90;;;;;;5075359;28;20209;-73
2021/07/05 05:04:53;;;;;;;2.15;2.05;;;18.30;99.90;;;;;;5075742;28;20223;-73
2021/07/05 05:07:20;;;;;;;1.55;1.45;;;18.40;99.90;;;;;;5075760;28;20310;-73
2021/07/05 05:09:47;;;;;;;2.00;1.90;;;18.50;99.90;;;;;;5076795;28;20203;-73
2021/07/05 05:12:14;;;;;;;2.78;1.50;;;18.60;99.90;;;;;;5076358;28;20207;-73
2021/07/05 05:14:40;;;;;;;1.90;1.80;;;18.60;99.90;;;;;;5076035;28;20204;-73
2021/07/05 05:17:07;;;;;;;2.78;2.53;;;18.70;99.90;;;;;;5076710;28;20318;-73
2021/07/05 05:19:34;;;;;;;2.70;2.50;;;18.70;99.90;;;;;;5076646;28;20378;-73
2021/07/05 05:22:06;;;;;;;1.90;1.80;;;18.70;99.90;;;;;;5075868;28;20201;-73
2021/07/05 05:24:33;;;;;;;1.70;1.58;;;18.80;99.90;;;;;;5077042;28;20286;-73
2021/07/05 05:27:00;;;;;;;1.70;1.60;;;18.80;99.90;;;;;;5076684;28;20322;-73
2021/07/05 05:29:27;;;;;;;1.60;1.50;;;18.90;99.90;;;;;;5077151;28;20207;-73
2021/07/05 05:31:53;;;;;;;1.90;1.80;;;18.90;99.90;;;;;;5076361;28;20298;-73
2021/07/05 05:34:20;;;;;;;1.33;1.23;;;19.00;99.90;;;;;;5076558;28;20699;-73
2021/07/05 05:36:47;;;;;;;2.10;2.00;;;19.10;99.90;;;;;;5076783;28;20500;-73
2021/07/05 05:39:15;;;;;;;1.87;1.77;;;19.20;99.90;;;;;;5076201;28;20213;-73
2021/07/05 05:41:42;;;;;;;1.88;1.77;;;19.20;99.90;;;;;;5075785;28;20553;-73
2021/07/05 05:44:09;;;;;;;2.10;1.50;;;19.30;99.90;;;;;;5075795;28;20628;-72
2021/07/05 05:46:36;;;;;;;1.63;1.52;;;19.30;99.90;;;;;;5075519;28;20210;-73
2021/07/05 05:49:04;;;;;;;2.17;1.47;;;19.30;99.90;;;;;;5075377;28;20215;-73
2021/07/05 05:51:32;;;;;;;1.73;1.63;;;19.40;99.90;;;;;;5074459;28;20446;-72
2021/07/05 05:53:59;;;;;;;1.70;1.70;;;19.40;99.90;;;;;;5074983;28;20246;-73
2021/07/05 05:56:28;;;;;;;3.70;1.67;;;19.40;99.90;;;;;;5075957;28;20446;-73
2021/07/05 05:59:00;;;;;;;1.90;1.80;;;19.40;99.90;;;;;;5076609;28;20815;-73
2021/07/05 06:01:27;;;;;;;1.90;1.80;;;19.40;99.90;;;;;;5075358;28;20446;-72
2021/07/05 06:03:54;;;;;;;1.60;1.50;;;19.40;99.90;;;;;;5075870;28;20442;-73
2021/07/05 06:06:24;;;;;;;2.13;1.93;;;19.30;99.90;;;;;;5075592;28;20231;-74
2021/07/05 06:08:52;;;;;;;1.83;1.60;;;19.30;99.90;;;;;;5075203;28;20931;-73
2021/07/05 06:11:19;;;;;;;1.63;1.53;;;19.30;99.90;;;;;;5074659;28;20446;-73
2021/07/05 06:13:48;;;;;;;1.80;1.70;;;19.30;99.90;;;;;;5074791;28;20858;-73
2021/07/05 06:16:15;;;;;;;1.80;1.70;;;19.30;99.90;;;;;;5074766;28;20988;-73
2021/07/05 06:18:42;;;;;;;2.00;1.80;;;19.30;99.90;;;;;;5074584;28;20497;-73
2021/07/05 06:21:09;;;;;;;1.63;1.53;;;19.30;99.90;;;;;;5073460;28;20525;-73
2021/07/05 06:23:36;;;;;;;2.00;1.90;;;19.20;99.90;;;;;;5073645;28;20445;-72
2021/07/05 06:26:05;;;;;;;1.57;1.47;;;19.30;99.90;;;;;;5074017;28;20486;-73
2021/07/05 06:28:34;;;;;;;1.70;1.60;;;19.30;99.90;;;;;;5073324;28;20566;-72
2021/07/05 06:31:04;;;;;;;1.80;1.70;;;19.30;99.90;;;;;;5073502;28;20445;-72
2021/07/05 06:33:31;;;;;;;1.60;1.50;;;19.30;99.90;;;;;;5073909;28;20438;-72
2021/07/05 06:35:58;;;;;;;1.70;1.60;;;19.30;99.90;;;;;;5074354;28;20292;-72
2021/07/05 06:38:25;;;;;;;2.40;2.20;;;19.30;99.90;;;;;;5074562;28;20474;-73
2021/07/05 06:40:53;;;;;;;1.70;1.60;;;19.20;99.90;;;;;;5074874;28;20438;-73
2021/07/05 06:43:20;;;;;;;1.53;1.43;;;19.20;99.90;;;;;;5075310;28;20871;-72
2021/07/05 06:45:47;;;;;;;2.10;1.80;;;19.10;99.90;;;;;;5074064;28;20536;-73
2021/07/05 06:48:15;;;;;;;1.60;1.50;;;19.20;99.90;;;;;;5073933;28;20474;-73
2021/07/05 06:50:42;;;;;;;2.40;1.93;;;19.20;99.90;;;;;;5074167;28;20819;-72
2021/07/05 06:53:09;;;;;;;2.77;1.80;;;19.20;99.90;;;;;;5074703;28;20514;-73
2021/07/05 06:55:36;;;;;;;1.80;1.70;;;19.10;99.90;;;;;;5078182;28;20438;-73
2021/07/05 06:58:04;;;;;;;1.90;1.80;;;19.10;99.90;;;;;;5078181;28;20458;-72
2021/07/05 07:00:31;;;;;;;2.10;1.90;;;19.20;99.90;;;;;;5077803;28;20451;-72
2021/07/05 07:02:59;;;;;;;1.53;1.43;;;19.20;99.90;;;;;;5078841;28;20445;-73
2021/07/05 07:05:29;;;;;;;1.70;1.60;;;19.20;99.90;;;;;;5078463;28;20474;-73
2021/07/05 07:07:57;;;;;;;6.10;1.77;;;19.30;99.90;;;;;;5077854;28;20469;-73
2021/07/05 07:10:25;;;;;;;1.60;1.50;;;19.30;99.90;;;;;;5077043;28;20928;-72
2021/07/05 07:12:54;;;;;;;1.80;1.70;;;19.50;99.90;;;;;;5077771;28;20534;-73
2021/07/05 07:15:25;;;;;;;2.57;1.90;;;19.50;99.90;;;;;;5077345;28;20470;-73
2021/07/05 07:17:55;;;;;;;2.00;1.40;;;19.60;99.90;;;;;;5077390;28;20471;-72
2021/07/05 07:20:22;;;;;;;1.80;1.70;;;19.60;99.90;;;;;;5076953;28;20531;-72
2021/07/05 07:22:50;;;;;;;1.60;1.50;;;19.70;99.90;;;;;;5077729;28;20478;-73
2021/07/05 07:25:18;;;;;;;1.70;1.60;;;19.70;99.90;;;;;;5077677;28;20562;-73
2021/07/05 07:27:45;;;;;;;1.90;1.80;;;19.70;99.90;;;;;;5077154;28;20469;-72
2021/07/05 07:30:14;;;;;;;2.60;1.90;;;19.70;99.90;;;;;;5077013;28;20446;-73
2021/07/05 07:32:42;;;;;;;1.77;1.67;;;19.70;99.90;;;;;;5076762;28;20451;-72
2021/07/05 07:35:09;;;;;;;2.27;1.63;;;19.70;99.90;;;;;;5077278;28;20434;-73
2021/07/05 07:37:37;;;;;;;1.57;1.47;;;19.70;99.90;;;;;;5077739;28;20491;-72
2021/07/05 07:40:14;;;;;;;2.40;1.93;;;19.70;99.90;;;;;;5076790;28;20814;-72
2021/07/05 07:42:41;;;;;;;2.60;1.90;;;19.80;99.90;;;;;;5077193;28;20475;-72
2021/07/05 07:45:09;;;;;;;2.33;2.20;;;19.60;99.90;;;;;;5077432;28;20483;-72
2021/07/05 07:47:36;;;;;;;1.90;1.80;;;19.50;99.90;;;;;;5076850;28;20462;-72
2021/07/05 07:50:04;;;;;;;1.70;1.60;;;19.70;99.90;;;;;;5076547;28;20469;-72
2021/07/05 07:52:31;;;;;;;2.50;2.30;;;19.70;99.90;;;;;;5076485;28;20533;-72
2021/07/05 07:54:58;;;;;;;2.03;1.93;;;19.70;99.90;;;;;;5076680;28;20539;-72
2021/07/05 07:57:26;;;;;;;2.27;2.07;;;19.70;99.90;;;;;;5076861;28;20559;-73
2021/07/05 07:59:53;;;;;;;2.20;1.97;;;19.70;99.90;;;;;;5076398;28;20958;-73
2021/07/05 08:02:20;;;;;;;1.50;1.40;;;19.80;99.90;;;;;;5076353;28;20539;-72
2021/07/05 08:04:46;;;;;;;2.17;1.80;;;19.90;99.90;;;;;;5075543;28;20942;-72
2021/07/05 08:07:13;;;;;;;1.90;1.50;;;20.00;99.90;;;;;;5076179;28;20477;-72
2021/07/05 08:09:40;;;;;;;1.90;1.80;;;19.90;99.90;;;;;;5076235;28;20868;-72
2021/07/05 08:12:08;;;;;;;1.97;1.87;;;20.10;99.90;;;;;;5075935;28;20531;-73
2021/07/05 08:14:36;;;;;;;2.40;2.20;;;20.10;99.90;;;;;;5076161;28;20438;-72
2021/07/05 08:17:03;;;;;;;3.60;2.07;;;20.00;99.90;;;;;;5076327;28;20462;-72
2021/07/05 08:19:30;;;;;;;1.60;1.50;;;20.00;99.90;;;;;;5076164;28;20451;-72
2021/07/05 08:21:57;;;;;;;1.87;1.77;;;20.00;99.90;;;;;;5075676;28;20536;-73
2021/07/05 08:24:24;;;;;;;2.90;2.40;;;20.00;99.90;;;;;;5075959;28;20471;-72
2021/07/05 08:26:51;;;;;;;1.57;1.47;;;20.00;99.90;;;;;;5075843;28;20496;-73
2021/07/05 08:29:18;;;;;;;2.40;2.20;;;20.00;99.90;;;;;;5075867;28;20968;-73
2021/07/05 08:31:46;;;;;;;2.13;1.93;;;19.80;99.90;;;;;;5076450;28;20446;-73
2021/07/05 08:34:13;;;;;;;1.73;1.63;;;19.80;99.90;;;;;;5076328;28;20543;-73
2021/07/05 08:36:40;;;;;;;1.83;1.73;;;19.80;99.90;;;;;;5076035;28;21246;-73
2021/07/05 08:39:07;;;;;;;4.50;1.83;;;19.80;99.90;;;;;;5076216;28;20446;-73
2021/07/05 08:41:34;;;;;;;2.07;1.60;;;19.80;99.90;;;;;;5076112;28;20461;-72
2021/07/05 08:44:03;;;;;;;1.77;1.67;;;19.90;99.90;;;;;;5076073;28;20448;-73
2021/07/05 08:46:32;;;;;;;2.13;1.70;;;19.90;99.90;;;;;;5075021;28;20491;-73
2021/07/05 08:49:00;;;;;;;2.10;1.90;;;19.90;99.90;;;;;;5075735;28;20482;-73
2021/07/05 08:51:28;;;;;;;2.50;1.60;;;20.00;99.90;;;;;;5075302;28;20805;-73
2021/07/05 08:53:56;;;;;;;2.77;2.00;;;20.10;99.90;;;;;;5075462;28;20443;-73
2021/07/05 08:56:23;;;;;;;1.83;1.73;;;20.00;99.90;;;;;;5075413;28;20448;-72
2021/07/05 08:58:52;;;;;;;1.90;1.70;;;20.00;99.90;;;;;;5075526;28;20458;-72
2021/07/05 09:01:19;;;;;;;3.57;2.10;;;20.00;99.90;;;;;;5075086;28;20448;-72
2021/07/05 09:03:48;;;;;;;1.80;1.70;;;19.90;99.90;;;;;;5075413;28;20453;-72
2021/07/05 09:06:18;;;;;;;2.60;2.17;;;19.90;99.90;;;;;;5075640;28;20479;-73
2021/07/05 09:08:47;;;;;;;1.87;1.77;;;19.80;99.90;;;;;;5075318;28;20781;-73
2021/07/05 09:11:18;;;;;;;2.13;1.87;;;19.90;99.90;;;;;;5074608;28;20453;-72
2021/07/05 09:13:47;;;;;;;1.83;1.73;;;20.00;99.90;;;;;;5075141;28;20545;-72
2021/07/05 09:16:27;;;;;;;1.67;1.57;;;20.00;99.90;;;;;;5074327;28;20444;-73
2021/07/05 09:18:54;;;;;;;2.10;2.00;;;20.10;99.90;;;;;;5075070;28;20444;-72
2021/07/05 09:21:24;;;;;;;2.33;2.13;;;20.10;99.90;;;;;;5074753;28;20454;-73
2021/07/05 09:23:57;;;;;;;1.90;1.80;;;20.10;99.90;;;;;;5074917;28;20825;-73
2021/07/05 09:26:28;;;;;;;2.40;2.20;;;20.20;99.90;;;;;;5074570;28;20511;-73
2021/07/05 09:28:55;;;;;;;2.20;2.00;;;20.20;99.90;;;;;;5074870;28;20432;-72
2021/07/05 09:31:34;;;;;;;1.87;1.77;;;20.10;99.90;;;;;;5074248;28;20448;-73
2021/07/05 09:34:02;;;;;;;1.90;1.80;;;20.10;99.90;;;;;;5075011;28;20452;-73
2021/07/05 09:36:30;;;;;;;2.87;2.33;;;20.00;99.90;;;;;;5074408;28;20444;-72
2021/07/05 09:38:57;;;;;;;2.83;2.30;;;19.90;99.90;;;;;;5074489;28;20450;-72
2021/07/05 09:41:26;;;;;;;2.63;1.63;;;19.80;99.90;;;;;;5073872;28;20550;-72
2021/07/05 09:43:55;;;;;;;1.93;1.83;;;19.80;99.90;;;;;;5074493;28;20440;-72
2021/07/05 09:46:41;;;;;;;2.60;1.57;;;19.80;99.90;;;;;;5073875;28;20574;-72
2021/07/05 09:49:19;;;;;;;1.60;1.50;;;19.60;99.90;;;;;;5074339;28;20458;-72
2021/07/05 09:52:05;;;;;;;1.40;1.30;;;19.60;99.90;;;;;;5075020;28;20521;-73
2021/07/05 09:54:33;;;;;;;1.20;1.20;;;19.60;99.90;;;;;;5075637;28;20454;-73
2021/07/05 09:57:01;;;;;;;1.30;1.20;;;19.50;99.90;;;;;;5075286;28;20467;-73
2021/07/05 09:59:28;;;;;;;1.50;1.40;;;19.60;99.90;;;;;;5075018;28;20541;-73
2021/07/05 10:01:57;;;;;;;1.40;1.37;;;19.50;99.90;;;;;;5074870;28;20486;-73
2021/07/05 10:04:26;;;;;;;2.47;1.40;;;19.50;99.90;;;;;;5075598;28;20448;-72
2021/07/05 10:06:56;;;;;;;2.20;1.50;;;19.50;99.90;;;;;;5076345;28;20871;-72
2021/07/05 10:09:33;;;;;;;1.93;1.50;;;19.40;99.90;;;;;;5075931;28;20481;-73
2021/07/05 10:12:20;;;;;;;3.70;1.27;;;19.30;99.90;;;;;;5075889;28;20438;-73
2021/07/05 10:14:55;;;;;;;1.37;1.27;;;19.30;99.90;;;;;;5075775;28;20460;-72
2021/07/05 10:17:23;;;;;;;1.63;1.53;;;19.30;99.90;;;;;;5075467;28;21014;-72
2021/07/05 10:19:50;;;;;;;1.52;1.35;;;19.30;99.90;;;;;;5075703;28;20435;-73
2021/07/05 10:22:18;;;;;;;1.30;1.23;;;19.20;99.90;;;;;;5073603;28;20638;-72
2021/07/05 10:24:46;;;;;;;2.08;1.38;;;19.20;99.90;;;;;;5073734;28;20439;-72
2021/07/05 10:27:14;;;;;;;1.20;1.20;;;19.10;99.90;;;;;;5073335;28;20317;-72
2021/07/05 10:29:43;;;;;;;1.50;1.40;;;19.10;99.90;;;;;;5073413;28;20931;-72
2021/07/05 10:32:11;;;;;;;1.17;1.10;;;19.10;99.90;;;;;;5073223;28;20869;-73
2021/07/05 10:34:39;;;;;;;3.73;2.90;;;19.10;99.90;;;;;;5073562;28;20464;-72
2021/07/05 10:37:10;;;;;;;2.27;2.07;;;19.20;99.90;;;;;;5075118;28;20461;-73
2021/07/05 10:39:39;;;;;;;1.50;1.40;;;19.20;99.90;;;;;;5074750;28;20445;-73
2021/07/05 10:42:27;;;;;;;1.63;1.23;;;19.30;99.90;;;;;;5073672;28;20456;-73
2021/07/05 10:44:54;;;;;;;1.23;1.23;;;19.30;99.90;;;;;;5074554;28;20438;-73
2021/07/05 10:47:54;;;;;;;1.57;1.47;;;19.40;99.90;;;;;;5075622;28;20556;-73
2021/07/05 10:50:52;;;;;;;1.23;1.20;;;19.20;99.90;;;;;;5074517;28;20445;-73
2021/07/05 10:53:49;;;;;;;1.47;1.37;;;19.30;99.90;;;;;;5012733;28;20449;-73
2021/07/05 10:56:37;;;;;;;1.93;1.30;;;19.40;99.90;;;;;;5072902;28;20455;-73
2021/07/05 10:59:40;;;;;;;1.30;1.30;;;19.50;99.90;;;;;;5073670;28;20947;-73
2021/07/05 11:02:37;;;;;;;1.40;1.30;;;19.70;99.90;;;;;;5074179;28;20441;-73
2021/07/05 11:05:06;;;;;;;1.40;1.30;;;19.90;99.90;;;;;;5073461;28;20450;-73
2021/07/05 11:07:44;;;;;;;2.10;2.00;;;20.00;99.90;;;;;;5073279;28;20927;-73
2021/07/05 11:10:18;;;;;;;1.80;1.70;;;20.20;99.90;;;;;;5073362;28;20450;-72
2021/07/05 11:12:57;;;;;;;1.60;1.50;;;20.30;99.90;;;;;;5073407;28;20454;-73
2021/07/05 11:15:54;;;;;;;1.40;1.30;;;20.30;99.90;;;;;;5073368;28;20475;-73
2021/07/05 11:19:07;;;;;;;1.20;1.20;;;20.40;99.90;;;;;;5073317;28;20451;-73
2021/07/05 11:22:10;;;;;;;2.33;2.13;;;20.50;99.90;;;;;;5072972;28;20447;-73
2021/07/05 11:24:46;;;;;;;1.53;1.43;;;20.50;99.90;;;;;;5073282;28;20448;-73
2021/07/05 11:27:30;;;;;;;2.13;2.03;;;20.50;99.90;;;;;;5073391;28;20491;-73
2021/07/05 11:30:13;;;;;;;1.37;1.27;;;20.50;99.90;;;;;;5061154;28;20455;-73
2021/07/05 11:32:41;;;;;;;3.63;2.10;;;20.50;99.90;;;;;;5073153;28;20518;-72
2021/07/05 11:35:30;;;;;;;1.50;1.40;;;20.60;99.90;;;;;;5073103;28;20546;-72
2021/07/05 11:37:58;;;;;;;1.50;1.40;;;20.60;99.90;;;;;;5073032;28;20463;-72
2021/07/05 11:40:46;;;;;;;2.13;2.00;;;20.70;99.90;;;;;;5074322;28;20444;-72
2021/07/05 11:43:15;;;;;;;1.60;1.50;;;20.70;99.90;;;;;;5076660;28;20436;-73
2021/07/05 11:45:46;;;;;;;1.90;1.80;;;20.50;99.90;;;;;;5076597;28;20530;-72
2021/07/05 11:48:46;;;;;;;1.43;1.40;;;20.40;99.90;;;;;;5076646;28;20459;-72
2021/07/05 11:51:17;;;;;;;2.73;1.30;;;20.50;99.90;;;;;;5076432;28;20445;-73
2021/07/05 11:53:48;;;;;;;2.13;2.00;;;20.40;99.90;;;;;;5076784;28;20897;-73
2021/07/05 11:56:35;;;;;;;1.93;1.80;;;20.40;99.90;;;;;;5076410;28;20445;-73
2021/07/05 11:59:06;;;;;;;1.83;1.73;;;20.40;99.90;;;;;;5076421;28;20469;-73
2021/07/05 12:01:36;;;;;;;7.93;6.90;;;20.50;99.90;;;;;;5076006;28;20443;-72
2021/07/05 12:04:04;;;;;;;2.60;2.40;;;20.60;99.90;;;;;;5076275;28;20805;-73
2021/07/05 12:06:32;;;;;;;4.63;2.60;;;20.80;99.90;;;;;;5076152;28;20472;-73
2021/07/05 12:09:00;;;;;;;1.53;1.43;;;21.00;99.90;;;;;;5076285;28;20812;-73
2021/07/05 12:11:32;;;;;;;1.70;1.60;;;21.10;99.90;;;;;;5075844;28;20449;-73
2021/07/05 12:14:12;;;;;;;2.70;2.50;;;21.30;99.90;;;;;;5076099;28;20535;-73
2021/07/05 12:16:44;;;;;;;2.50;2.30;;;21.40;99.90;;;;;;5076002;28;20805;-73
2021/07/05 12:19:13;;;;;;;3.10;2.73;;;21.50;99.90;;;;;;5075792;28;20433;-73
2021/07/05 12:21:43;;;;;;;1.60;1.30;;;21.50;99.90;;;;;;5075709;28;20449;-73
2021/07/05 12:24:28;;;;;;;1.60;1.50;;;21.40;99.90;;;;;;5076136;28;20787;-73
2021/07/05 12:27:00;;;;;;;2.53;1.87;;;21.40;99.90;;;;;;5075703;28;20920;-72
2021/07/05 12:29:30;;;;;;;1.30;1.23;;;21.30;99.90;;;;;;5075948;28;20846;-72
2021/07/05 12:32:09;;;;;;;2.10;1.90;;;21.20;99.90;;;;;;5075526;28;20985;-73
2021/07/05 12:34:40;;;;;;;3.77;1.60;;;21.20;99.90;;;;;;5075691;28;20449;-73
2021/07/05 12:37:08;;;;;;;2.83;1.50;;;21.20;99.90;;;;;;5075876;28;20828;-73
2021/07/05 12:39:43;;;;;;;3.00;2.70;;;21.30;99.90;;;;;;5075592;28;20927;-73
2021/07/05 12:42:35;;;;;;;4.17;3.40;;;21.30;99.90;;;;;;5075382;28;20453;-73
2021/07/05 12:45:07;;;;;;;1.90;1.80;;;21.40;99.90;;;;;;5075708;28;20483;-74
2021/07/05 12:47:44;;;;;;;1.67;1.57;;;21.50;99.90;;;;;;5075439;28;20567;-73
2021/07/05 12:50:11;;;;;;;1.73;1.57;;;21.70;99.90;;;;;;5075378;28;20815;-73
2021/07/05 12:52:38;;;;;;;1.60;1.50;;;21.80;99.90;;;;;;5075368;28;20440;-73
2021/07/05 12:55:17;;;;;;;1.33;1.23;;;22.10;99.90;;;;;;5075915;28;20444;-73
2021/07/05 12:57:52;;;;;;;1.73;1.63;;;22.30;99.90;;;;;;5075627;28;20468;-73
2021/07/05 13:00:20;;;;;;;2.07;1.90;;;22.40;99.90;;;;;;5075347;28;20445;-73
2021/07/05 13:02:49;;;;;;;3.57;3.27;;;22.40;99.90;;;;;;5075268;28;20777;-73